Latest Weather Observations for Cape Flattery

IDQ60801

Issued at 9:33 pm EST Monday 25 July 2016 (issued every 30 minutes, with the page automatically refreshed every 10 minutes)

About weather observations | Map of weather stations | Latest weather observations for QLD | Other Formats
Station Details ID: 031213 Name: CAPE FLATTERY Lat: -14.97 Lon: 145.31 Height: 18.5 m
Data from the previous 72 hours. | See also: Recent months at Cape Flattery
Date/Time
EST
Temp
°C
App
Temp
°C
Dew
Point
°C
Rel
Hum
%
Delta-T
°C
Wind Press
QNH
hPa
Press
MSL
hPa
Rain since
9am
mm
Dir  Spd
km/h
Gust
km/h
Spd
kts
Gust
kts
25/09:30pm 24.2 23.0 19.3 74 3.1 SE 24 33 13 18 1014.8 1014.7 0.0
25/09:00pm 24.5 23.5 19.6 74 3.2 SE 24 37 13 20 1015.0 1014.9 0.0
25/08:30pm 24.4 22.9 19.5 74 3.1 SE 26 33 14 18 1014.7 1014.6 0.0
25/08:00pm 24.3 22.4 19.4 74 3.1 SSE 28 37 15 20 1014.3 1014.2 0.0
25/07:30pm 24.3 22.3 19.1 73 3.3 SSE 28 39 15 21 1014.0 1013.9 0.0
25/07:00pm 24.4 22.0 19.0 72 3.4 SSE 30 35 16 19 1013.7 1013.6 0.0
25/06:30pm 24.5 22.6 19.3 73 3.3 SSE 28 35 15 19 1013.6 1013.5 0.0
25/06:00pm 24.7 22.3 19.1 71 3.6 SSE 30 41 16 22 1013.4 1013.3 0.0
25/05:30pm 25.0 23.3 19.8 73 3.4 SE 28 37 15 20 1013.5 1013.4 0.0
25/05:00pm 25.7 23.0 19.3 67 4.1 SSE 32 41 17 22 1013.3 1013.2 0.0
25/04:30pm 25.5 22.6 18.9 67 4.2 SSE 32 43 17 23 1013.3 1013.2 0.0
25/04:00pm 26.8 24.5 20.2 67 4.3 SSE 32 44 17 24 1013.2 1013.1 0.0
25/03:30pm 26.8 23.7 18.9 62 5.1 SE 33 44 18 24 1013.2 1013.1 0.0
25/03:00pm 26.9 23.3 19.3 63 4.9 SSE 37 46 20 25 1013.3 1013.2 0.0
25/02:30pm 27.1 24.0 18.9 61 5.3 SSE 33 44 18 24 1013.4 1013.3 0.0
25/02:00pm 27.4 24.6 19.5 62 5.1 SSE 33 43 18 23 1013.7 1013.6 0.0
25/01:30pm 27.4 24.0 18.9 59 5.5 SSE 35 46 19 25 1014.0 1013.9 0.0
25/01:00pm 27.2 24.3 18.8 60 5.4 SE 32 43 17 23 1014.5 1014.4 0.0
25/12:30pm 27.2 24.2 19.0 61 5.3 SE 33 41 18 22 1015.0 1014.9 0.0
25/12:00pm 27.2 23.8 18.2 58 5.7 SE 33 44 18 24 1015.3 1015.2 0.0
25/11:30am 27.3 24.5 19.1 61 5.3 SE 32 41 17 22 1015.6 1015.5 0.0
25/11:00am 27.1 24.8 19.4 62 5.0 SE 30 41 16 22 1015.7 1015.6 0.0
25/10:30am 27.0 24.0 18.6 60 5.4 SE 32 43 17 23 1015.8 1015.7 0.0
25/10:00am 26.9 24.2 19.3 63 4.9 SE 32 41 17 22 1015.9 1015.8 0.0
25/09:30am 26.2 23.0 18.1 61 5.1 SE 32 41 17 22 1015.9 1015.8 0.0
25/09:00am 25.9 23.7 18.6 64 4.6 SE 28 41 15 22 1015.9 1015.8 0.0
25/08:30am 25.5 23.7 17.9 63 4.8 SE 24 33 13 18 1015.6 1015.5 0.0
25/08:00am 25.0 22.6 18.2 66 4.3 SE 28 39 15 21 1015.3 1015.2 0.0
25/07:30am 24.4 22.0 18.3 69 3.8 SE 28 35 15 19 1014.9 1014.8 0.0
25/07:00am 23.7 21.8 17.7 69 3.7 SE 24 33 13 18 1014.6 1014.5 0.0
25/06:30am 24.0 22.0 18.4 71 3.5 SE 26 35 14 19 1014.3 1014.2 0.0
25/06:00am 23.7 22.5 18.4 72 3.3 SE 22 33 12 18 1014.1 1014.0 0.0
25/05:30am 23.7 23.1 18.8 74 3.1 SE 20 28 11 15 1013.7 1013.6 0.0
25/05:00am 23.2 22.3 17.7 71 3.4 SE 19 26 10 14 1013.4 1013.3 0.0
25/04:30am 23.5 21.6 17.7 70 3.6 SE 24 35 13 19 1013.4 1013.3 0.0
25/04:00am 23.5 22.1 17.9 71 3.5 SE 22 32 12 17 1013.5 1013.4 0.0
25/03:30am 23.7 22.1 18.4 72 3.3 SE 24 35 13 19 1013.4 1013.3 0.0
25/03:00am 23.9 22.9 18.8 73 3.2 SE 22 35 12 19 1013.6 1013.5 0.0
25/02:30am 23.7 21.9 17.9 70 3.6 SE 24 33 13 18 1013.8 1013.7 0.0
25/02:00am 23.4 22.5 18.1 72 3.3 SE 20 26 11 14 1014.0 1013.9 0.0
25/01:30am 23.5 22.6 18.2 72 3.3 SE 20 30 11 16 1014.2 1014.1 0.0
25/01:00am 23.7 22.4 18.1 71 3.5 SE 22 32 12 17 1014.4 1014.3 0.0
25/12:30am 23.8 22.5 18.2 71 3.5 SE 22 32 12 17 1014.5 1014.4 0.0
25/12:00am 23.8 23.3 19.1 75 3.0 SE 20 26 11 14 1014.8 1014.7 0.0
 
Date/Time
EST
Temp
°C
App
Temp
°C
Dew
Point
°C
Rel
Hum
%
Delta-T
°C
Wind Press
QNH
hPa
Press
MSL
hPa
Rain since
9am
mm
Dir  Spd
km/h
Gust
km/h
Spd
kts
Gust
kts
24/11:30pm 23.6 23.0 18.5 73 3.2 SE 19 24 10 13 1015.0 1014.9 0.0
24/11:00pm 23.6 22.8 18.5 73 3.2 SE 20 28 11 15 1015.0 1014.9 0.0
24/10:30pm 23.7 22.9 18.4 72 3.3 SE 20 28 11 15 1015.1 1015.0 0.0
24/10:00pm 23.8 22.6 18.4 72 3.4 SE 22 33 12 18 1015.2 1015.1 0.0
24/09:30pm 23.9 22.4 18.5 72 3.4 SE 24 32 13 17 1015.2 1015.1 0.0
24/09:00pm 24.0 22.6 18.9 73 3.2 SSE 24 33 13 18 1015.1 1015.0 0.0
24/08:30pm 23.9 23.1 18.5 72 3.4 SSE 20 26 11 14 1014.8 1014.7 0.0
24/08:00pm 24.4 23.4 18.8 71 3.6 SSE 22 30 12 16 1014.6 1014.5 0.0
24/07:30pm 24.2 23.5 18.6 71 3.5 SE 20 28 11 15 1014.3 1014.2 0.0
24/07:00pm 24.2 23.2 18.8 72 3.4 SE 22 30 12 16 1014.0 1013.9 0.0
24/06:30pm 24.1 22.6 18.5 71 3.5 SSE 24 32 13 17 1013.7 1013.6 0.0
24/06:00pm 24.3 22.9 18.7 71 3.6 SSE 24 30 13 16 1013.2 1013.1 0.0
24/05:30pm 25.1 23.9 19.2 70 3.8 SE 24 32 13 17 1013.0 1012.9 0.0
24/05:00pm 25.7 24.0 18.9 66 4.3 SE 26 33 14 18 1013.0 1012.9 0.0
24/04:30pm 26.0 23.7 18.4 63 4.8 SSE 28 35 15 19 1012.8 1012.7 0.0
24/04:00pm 26.2 23.2 18.6 63 4.8 SSE 32 37 17 20 1012.8 1012.7 0.0
24/03:30pm 26.6 24.4 19.5 65 4.6 SSE 30 37 16 20 1012.7 1012.6 0.0
24/03:00pm 27.1 25.0 18.9 61 5.3 SSE 28 37 15 20 1012.9 1012.8 0.0
24/02:30pm 26.9 23.8 18.5 60 5.4 SSE 32 39 17 21 1013.1 1013.0 0.0
24/02:00pm 26.7 23.7 19.1 63 4.9 SE 33 41 18 22 1013.4 1013.3 0.0
24/01:30pm 27.3 24.7 19.4 62 5.1 SE 32 39 17 21 1013.7 1013.6 0.0
24/01:00pm 27.3 25.1 19.6 62 5.0 SSE 30 39 16 21 1014.2 1014.1 0.0
24/12:30pm 27.2 25.5 19.0 61 5.3 SE 26 37 14 20 1014.6 1014.5 0.0
24/12:00pm 27.1 25.5 19.2 62 5.1 SE 26 35 14 19 1014.9 1014.8 0.0
24/11:30am 27.2 25.6 20.0 64 4.7 SSE 28 37 15 20 1015.2 1015.1 0.0
24/11:00am 26.6 24.2 18.2 60 5.3 SE 28 37 15 20 1015.2 1015.1 0.0
24/10:30am 26.9 26.0 19.8 65 4.6 SE 24 35 13 19 1015.4 1015.3 0.0
24/10:00am 26.3 24.7 19.2 65 4.6 SE 26 37 14 20 1015.4 1015.3 0.0
24/09:30am 25.9 24.7 19.3 67 4.2 SE 24 32 13 17 1015.5 1015.4 0.0
24/09:00am 25.8 24.3 19.4 67 4.1 SE 26 37 14 20 1015.2 1015.1 2.2
24/08:30am 25.3 25.2 19.9 72 3.5 SE 20 30 11 16 1014.7 1014.6 2.2
24/08:00am 24.7 23.8 19.1 71 3.6 SE 22 30 12 16 1014.4 1014.3 2.2
24/07:30am 23.9 23.4 19.0 74 3.1 SE 20 28 11 15 1014.0 1013.9 2.2
24/07:00am 23.2 22.9 19.2 78 2.5 SE 19 24 10 13 1013.7 1013.6 2.2
24/06:30am 22.8 22.4 19.0 79 2.4 ESE 19 24 10 13 1013.6 1013.5 2.2
24/06:00am 23.0 23.1 19.2 79 2.4 ESE 17 20 9 11 1013.5 1013.4 2.2
24/05:30am 23.4 23.2 19.8 80 2.3 SE 20 26 11 14 1013.0 1012.9 2.2
24/05:00am 23.3 23.4 19.9 81 2.2 SE 19 26 10 14 1012.8 1012.7 2.2
24/04:30am 22.7 23.2 19.3 81 2.2 ESE 15 19 8 10 1012.7 1012.6 2.2
24/04:00am 22.7 23.1 19.1 80 2.3 ESE 15 20 8 11 1012.6 1012.5 2.2
24/03:30am 22.8 23.3 19.2 80 2.3 ESE 15 19 8 10 1012.7 1012.6 2.2
24/03:00am 23.0 23.5 19.2 79 2.4 ESE 15 20 8 11 1012.9 1012.8 2.2
24/02:30am 22.9 23.3 19.1 79 2.4 ESE 15 19 8 10 1013.2 1013.1 2.2
24/02:00am 22.9 24.0 19.7 82 2.1 ESE 13 19 7 10 1013.3 1013.2 2.2
24/01:30am 22.6 23.8 19.8 84 1.8 ESE 13 17 7 9 1013.5 1013.4 2.2
24/01:00am 22.7 23.8 19.7 83 1.9 ESE 13 19 7 10 1013.6 1013.5 2.2
24/12:30am 22.9 24.0 19.7 82 2.1 ESE 13 20 7 11 1013.7 1013.6 2.2
24/12:00am 23.1 23.4 19.7 81 2.2 ESE 17 22 9 12 1013.8 1013.7 2.2
 
Date/Time
EST
Temp
°C
App
Temp
°C
Dew
Point
°C
Rel
Hum
%
Delta-T
°C
Wind Press
QNH
hPa
Press
MSL
hPa
Rain since
9am
mm
Dir  Spd
km/h
Gust
km/h
Spd
kts
Gust
kts
23/11:30pm 23.1 23.6 20.1 83 1.9 ESE 17 20 9 11 1013.9 1013.8 2.2
23/11:00pm 23.1 23.7 20.2 84 1.9 ESE 17 24 9 13 1013.9 1013.8 2.2
23/10:30pm 23.0 24.0 20.3 85 1.7 ESE 15 22 8 12 1013.9 1013.8 2.2
23/10:00pm 23.5 24.0 20.8 85 1.8 ESE 19 28 10 15 1013.8 1013.7 2.2
23/09:30pm 23.5 24.3 21.4 88 1.4 ESE 19 26 10 14 1013.6 1013.5 2.2
23/09:00pm 23.2 25.4 21.8 92 0.9 SE 13 17 7 9 1013.5 1013.4 2.2
23/08:30pm 23.2 24.5 21.6 91 1.1 SE 17 20 9 11 1013.3 1013.2 2.2
23/08:00pm 23.3 23.9 22.1 93 0.8 SSE 22 30 12 16 1013.1 1013.0 2.2
23/07:30pm 23.5 24.6 22.3 93 0.8 SSE 20 26 11 14 1012.8 1012.7 2.2
23/07:00pm 23.5 24.3 22.5 94 0.7 SSE 22 28 12 15 1012.6 1012.5 2.2
23/06:30pm 23.8 25.8 23.0 95 0.5 SSE 17 20 9 11 1012.3 1012.2 2.2
23/06:00pm 23.4 24.8 22.6 95 0.5 SSE 19 24 10 13 1012.3 1012.2 2.0
23/05:30pm 23.2 25.7 22.4 95 0.5 SSE 13 20 7 11 1012.2 1012.1 1.6
23/05:00pm 23.2 24.8 22.2 94 0.7 SE 17 22 9 12 1012.0 1011.9 1.4
23/04:30pm 23.7 24.6 22.0 90 1.1 SSE 20 28 11 15 1011.7 1011.6 1.4
23/04:00pm 24.0 25.2 22.1 89 1.3 SE 19 28 10 15 1011.5 1011.4 1.2
23/03:30pm 26.0 27.1 21.9 78 2.7 SE 19 24 10 13 1011.4 1011.3 0.8
23/03:00pm 25.3 26.5 22.2 83 2.1 SE 19 24 10 13 1011.5 1011.4 0.8
23/02:30pm 24.6 24.0 21.3 82 2.2 SSE 26 32 14 17 1012.0 1011.9 0.6
23/02:00pm 26.2 26.3 21.8 77 2.9 SSE 24 30 13 16 1012.2 1012.1 0.4
23/01:30pm 26.3 26.6 21.5 75 3.2 SE 22 30 12 16 1012.7 1012.6 0.4
23/01:00pm 26.1 27.0 22.0 78 2.7 SE 20 28 11 15 1013.2 1013.1 0.4
23/12:30pm 25.0 25.1 22.5 86 1.7 SSE 26 33 14 18 1013.3 1013.2 0.4
23/12:00pm 24.0 24.0 21.7 87 1.5 S 24 33 13 18 1013.8 1013.7 0.0
23/11:30am 25.7 25.8 21.8 79 2.6 SSE 24 33 13 18 1013.9 1013.8 0.0
23/11:00am 25.9 24.9 20.5 72 3.5 SSE 26 35 14 19 1014.1 1014.0 0.0
23/10:30am 26.9 26.0 20.7 69 4.1 SE 26 35 14 19 1014.4 1014.3 0.0
23/10:00am 26.5 26.4 20.8 71 3.8 SSE 22 32 12 17 1014.9 1014.8 0.0
23/09:30am 25.9 25.7 21.3 76 3.0 SE 24 30 13 16 1014.8 1014.7 0.0
23/09:00am 25.4 25.0 20.9 76 3.0 SE 24 32 13 17 1014.8 1014.7 0.0
23/08:30am 24.8 24.9 20.3 76 2.9 SE 20 28 11 15 1014.5 1014.4 0.0
23/08:00am 24.3 22.8 20.2 78 2.7 SE 28 37 15 20 1014.3 1014.2 0.0
23/07:30am 24.1 24.7 21.0 83 2.0 SE 19 26 10 14 1014.0 1013.9 0.0
23/07:00am 23.6 24.5 20.9 85 1.8 SSE 17 22 9 12 1013.7 1013.6 0.0
23/06:30am 23.7 23.8 20.4 82 2.1 SSE 20 30 11 16 1013.6 1013.5 0.0
23/06:00am 23.8 24.4 20.3 81 2.3 SE 17 20 9 11 1013.3 1013.2 0.0
23/05:30am 23.9 23.8 20.0 79 2.5 SE 20 28 11 15 1012.9 1012.8 0.0
23/05:00am 24.3 24.4 20.0 77 2.8 SE 19 24 10 13 1012.8 1012.7 0.0
23/04:30am 24.2 24.0 19.7 76 2.9 SE 20 26 11 14 1012.8 1012.7 0.0
23/04:00am 24.2 23.5 19.5 75 3.0 SE 22 30 12 16 1012.7 1012.6 0.0
23/03:30am 24.2 25.2 20.3 79 2.5 SE 15 20 8 11 1012.6 1012.5 0.0
23/03:00am 23.8 23.9 19.9 79 2.5 SE 19 24 10 13 1012.7 1012.6 0.0
23/02:30am 23.7 24.1 19.8 79 2.5 SE 17 24 9 13 1012.8 1012.7 0.0
23/02:00am 24.0 23.8 19.7 77 2.8 SE 20 30 11 16 1013.1 1013.0 0.0
23/01:30am 24.1 23.4 19.6 76 2.9 SE 22 30 12 16 1013.3 1013.2 0.0
23/01:00am 24.1 23.8 19.6 76 2.9 SE 20 30 11 16 1013.4 1013.3 0.0
23/12:30am 24.0 23.9 19.9 78 2.6 SE 20 30 11 16 1013.7 1013.6 0.0
23/12:00am 24.0 23.9 19.9 78 2.6 SE 20 30 11 16 1013.8 1013.7 0.0
 
Date/Time
EST
Temp
°C
App
Temp
°C
Dew
Point
°C
Rel
Hum
%
Delta-T
°C
Wind Press
QNH
hPa
Press
MSL
hPa
Rain since
9am
mm
Dir  Spd
km/h
Gust
km/h
Spd
kts
Gust
kts
22/11:30pm 24.4 24.4 20.1 77 2.8 SE 20 28 11 15 1014.0 1013.9 0.0
22/11:00pm 24.1 23.9 19.8 77 2.8 SE 20 30 11 16 1014.1 1014.0 0.0
22/10:30pm 24.2 23.7 19.9 77 2.8 SE 22 32 12 17 1014.1 1014.0 0.0
22/10:00pm 24.4 23.6 20.1 77 2.8 SE 24 32 13 17 1014.0 1013.9 0.0

Other Formats:

Comma delimited format used in spreadsheet applications
http://www.bom.gov.au/fwo/IDQ60801/IDQ60801.94188.axf

JavaScript Object Notation format (JSON) in row-major order
http://www.bom.gov.au/fwo/IDQ60801/IDQ60801.94188.json